Time;durP1;ratioP1;P1;durP2;ratioP2;P2;SDS_P1;SDS_P2;PMS_P1;PMS_P2;Temp;Humidity;BMP_temperature;BMP_pressure;BME280_temperature;BME280_humidity;BME280_pressure;Samples;Min_cycle;Max_cycle;Signal;HPM_P1;HPM_P2
2021/05/19 11:49:26;;;;;;;3.08;2.88;;;13.80;99.90;;;13.38;70.43;97925.63;5287408;27;20623;-63
2021/05/19 11:51:59;;;;;;;3.00;2.80;;;13.70;99.90;;;13.51;70.77;97922.84;5267531;28;20192;-63
2021/05/19 11:54:41;;;;;;;3.40;2.97;;;13.50;99.90;;;13.57;71.55;97918.81;5250229;28;20216;-62
2021/05/19 11:57:14;;;;;;;3.30;2.63;;;13.40;99.90;;;13.62;65.39;97914.75;5243809;28;20206;-63
2021/05/19 11:59:46;;;;;;;2.90;2.65;;;13.30;99.90;;;13.65;70.09;97910.66;5242330;28;20678;-63
2021/05/19 12:02:20;;;;;;;2.90;2.70;;;13.30;99.90;;;13.70;73.27;97908.25;5238696;28;20241;-59
2021/05/19 12:04:56;;;;;;;2.90;2.80;;;13.30;99.90;;;13.85;67.46;97901.28;5236985;28;20224;-63
2021/05/19 12:07:38;;;;;;;2.75;2.55;;;13.40;99.90;;;14.12;61.80;97882.72;5243455;28;20220;-63
2021/05/19 12:10:12;;;;;;;2.47;2.38;;;13.60;99.90;;;14.32;63.13;97892.19;5243236;28;20573;-60
2021/05/19 12:12:53;;;;;;;3.33;2.60;;;13.90;99.90;;;14.67;58.08;97877.38;5242915;28;20751;-60
2021/05/19 12:15:26;;;;;;;2.22;2.13;;;14.40;99.90;;;14.91;60.65;97890.38;5241460;28;20731;-63
2021/05/19 12:17:59;;;;;;;2.53;2.42;;;14.70;99.90;;;15.20;61.36;97894.13;5241908;28;20283;-60
2021/05/19 12:20:34;;;;;;;2.55;2.40;;;14.90;99.90;;;15.53;59.15;97885.91;5241932;28;20652;-60
2021/05/19 12:23:08;;;;;;;2.50;2.40;;;15.20;99.90;;;15.69;59.47;97884.84;5238756;28;20196;-60
2021/05/19 12:25:45;;;;;;;2.50;2.30;;;15.30;99.90;;;15.93;56.98;97883.16;5242842;28;20291;-61
2021/05/19 12:28:21;;;;;;;2.10;2.00;;;15.50;99.90;;;16.11;54.17;97880.38;5239575;28;20691;-61
2021/05/19 12:30:58;;;;;;;2.35;2.15;;;15.60;99.90;;;16.08;54.27;97882.84;5234969;28;20196;-61
2021/05/19 12:33:38;;;;;;;2.72;2.50;;;15.60;99.90;;;16.01;52.65;97888.59;5241706;28;20243;-62
2021/05/19 12:36:25;;;;;;;2.85;2.15;;;15.50;99.90;;;15.92;54.68;97888.28;5242100;28;20311;-62
2021/05/19 12:39:01;;;;;;;2.45;2.35;;;15.40;99.90;;;15.85;53.03;97886.28;5242032;28;20736;-62
2021/05/19 12:41:43;;;;;;;2.38;2.17;;;15.20;99.90;;;15.83;51.32;97878.50;5241453;28;20200;-62
2021/05/19 12:44:18;;;;;;;2.15;2.05;;;15.20;99.90;;;15.85;51.70;97881.13;5242078;28;20803;-62
2021/05/19 12:46:59;;;;;;;2.58;2.00;;;15.20;99.90;;;15.93;53.05;97884.84;5240748;28;20350;-63
2021/05/19 12:49:33;;;;;;;2.10;1.90;;;15.30;99.90;;;16.19;49.44;97878.94;5241169;28;20217;-62
2021/05/19 12:52:15;;;;;;;2.40;2.20;;;15.60;97.40;;;16.46;47.15;97874.69;5237333;28;20657;-62
2021/05/19 12:54:49;;;;;;;2.03;1.92;;;15.80;96.80;;;16.39;48.26;97874.47;5236224;28;20224;-62
2021/05/19 12:57:26;;;;;;;2.97;1.80;;;15.90;97.20;;;16.44;45.30;97872.06;5241533;28;20303;-62
2021/05/19 13:00:02;;;;;;;2.13;2.03;;;15.80;95.10;;;16.55;45.13;97875.88;5231867;28;20272;-62
2021/05/19 13:02:46;;;;;;;2.60;2.13;;;16.00;94.70;;;16.61;45.86;97877.78;5224538;28;20225;-62
2021/05/19 13:05:21;;;;;;;2.00;1.90;;;16.00;94.80;;;16.61;45.17;97873.50;5223753;28;20711;-62
2021/05/19 13:07:55;;;;;;;1.80;1.70;;;16.00;94.50;;;16.72;44.19;97875.56;5222879;28;20757;-62
2021/05/19 13:10:32;;;;;;;2.05;1.83;;;16.10;93.70;;;16.58;46.39;97868.22;5223930;28;20636;-62
2021/05/19 13:13:27;;;;;;;2.20;2.00;;;15.90;95.60;;;16.66;47.77;97874.53;5223449;28;20217;-62
2021/05/19 13:16:02;;;;;;;1.90;1.80;;;15.90;96.90;;;16.65;50.13;97870.22;5221359;28;20207;-62
2021/05/19 13:18:38;;;;;;;3.00;2.00;;;15.90;98.40;;;16.75;46.27;97881.69;5224354;28;20309;-62
2021/05/19 13:21:15;;;;;;;2.53;2.10;;;15.90;95.90;;;16.60;47.11;97876.03;5225957;28;20201;-62
2021/05/19 13:23:52;;;;;;;2.22;2.00;;;15.80;96.30;;;16.63;44.07;97871.84;5222493;28;20282;-62
2021/05/19 13:26:27;;;;;;;2.55;2.08;;;15.90;93.50;;;16.75;44.81;97878.25;5224168;28;20739;-62
2021/05/19 13:29:02;;;;;;;1.95;1.85;;;16.10;93.90;;;16.92;45.26;97884.88;5226261;28;20311;-62
2021/05/19 13:31:41;;;;;;;2.17;1.98;;;16.10;94.70;;;16.92;43.79;97874.53;5222006;28;20314;-62
2021/05/19 13:34:20;;;;;;;2.25;1.73;;;16.20;93.90;;;17.11;43.22;97879.47;5225712;28;20227;-62
2021/05/19 13:36:53;;;;;;;2.33;2.13;;;16.40;93.20;;;17.30;41.01;97870.56;5212420;28;20511;-62
2021/05/19 13:39:28;;;;;;;2.22;2.08;;;16.70;91.80;;;17.32;40.65;97886.13;5220796;28;20583;-62
2021/05/19 13:42:04;;;;;;;2.30;2.00;;;16.80;90.50;;;17.35;43.18;97881.06;5222241;28;20316;-62
2021/05/19 13:44:36;;;;;;;2.40;1.83;;;16.60;92.70;;;17.43;42.79;97877.00;5219704;28;20231;-62
2021/05/19 13:47:11;;;;;;;2.20;2.00;;;16.60;92.90;;;17.52;40.89;97868.66;5219261;28;20201;-61
2021/05/19 13:50:01;;;;;;;2.03;1.85;;;16.60;91.40;;;17.75;41.88;97877.09;5219304;28;20190;-62
2021/05/19 13:52:34;;;;;;;1.83;1.70;;;17.00;91.70;;;17.55;41.99;97884.25;5221424;28;20284;-62
2021/05/19 13:55:10;;;;;;;2.33;2.10;;;16.90;91.70;;;17.60;42.06;97887.84;5225028;28;20217;-62
2021/05/19 13:57:42;;;;;;;2.65;1.75;;;16.80;93.10;;;17.64;39.52;97879.34;5225680;28;20660;-62
2021/05/19 14:00:16;;;;;;;2.15;2.05;;;16.80;89.90;;;17.72;40.35;97890.78;5225901;28;20296;-61
2021/05/19 14:02:49;;;;;;;1.83;1.40;;;16.90;91.10;;;17.76;40.23;97889.16;5205431;28;20234;-63
2021/05/19 14:05:25;;;;;;;2.17;1.90;;;16.90;90.20;;;17.70;39.26;97894.16;5215415;28;20300;-62
2021/05/19 14:07:58;;;;;;;2.08;1.90;;;17.00;88.30;;;17.68;39.00;97891.50;5214581;28;20270;-63
2021/05/19 14:10:33;;;;;;;1.77;1.67;;;16.90;89.00;;;17.69;41.42;97892.41;5222149;28;20309;-62
2021/05/19 14:13:09;;;;;;;2.10;1.88;;;16.90;91.10;;;17.58;39.67;97889.50;5224821;28;20296;-62
2021/05/19 14:15:48;;;;;;;2.90;2.20;;;16.90;89.30;;;17.60;39.78;97897.28;5223030;28;20280;-62
2021/05/19 14:18:35;;;;;;;2.50;2.40;;;16.80;90.00;;;17.40;41.21;97884.66;5224971;28;20228;-62
2021/05/19 14:27:10;;;;;;;2.97;2.25;;;16.50;90.50;;;17.32;40.26;97886.13;5225291;28;20213;-63
2021/05/19 14:29:42;;;;;;;2.60;2.10;;;16.50;90.00;;;17.36;39.79;97882.81;5225403;28;20636;-62
2021/05/19 14:32:17;;;;;;;2.28;2.03;;;16.50;89.00;;;17.33;41.42;97887.88;5225523;28;20287;-62
2021/05/19 14:34:52;;;;;;;2.13;2.00;;;16.50;91.40;;;17.24;41.22;97880.72;5224561;28;20244;-62
2021/05/19 14:53:56;;;;;;;2.50;2.30;;;16.10;92.30;;;16.79;43.18;97878.41;5202687;28;20780;-62
2021/05/19 15:00:42;;;;;;;3.05;2.15;;;16.20;92.40;;;16.95;43.34;97879.81;5165000;28;20305;-62
2021/05/19 15:03:14;;;;;;;2.05;1.90;;;16.30;91.20;;;16.90;41.64;97881.34;5173171;28;20724;-62
2021/05/19 15:05:47;;;;;;;2.72;2.05;;;16.20;90.40;;;16.75;41.56;97870.50;5185632;28;20274;-62
2021/05/19 15:08:19;;;;;;;2.40;2.30;;;16.00;90.10;;;16.74;42.55;97873.91;5185990;28;20222;-62
2021/05/19 15:10:52;;;;;;;2.72;2.13;;;16.00;90.80;;;16.89;42.76;97866.69;5176990;28;20286;-62
2021/05/19 15:13:24;;;;;;;2.17;2.08;;;16.20;91.60;;;17.03;43.03;97868.03;5175306;28;20284;-63
2021/05/19 15:15:58;;;;;;;2.88;2.03;;;16.30;91.40;;;16.82;43.16;97864.72;5185220;28;20210;-62
2021/05/19 15:18:30;;;;;;;2.85;2.25;;;16.10;91.10;;;16.79;42.90;97867.22;5185264;28;20289;-62
2021/05/19 15:21:03;;;;;;;2.30;2.20;;;16.10;90.90;;;16.74;44.05;97866.16;5186169;28;20227;-62
2021/05/19 15:23:37;;;;;;;4.05;2.25;;;16.00;91.90;;;17.03;41.97;97873.19;5182660;28;20698;-62
2021/05/19 15:26:10;;;;;;;2.42;2.17;;;16.20;91.10;;;16.89;44.46;97895.09;5175135;28;20195;-62
2021/05/19 15:28:42;;;;;;;3.55;1.95;;;16.10;92.40;;;16.67;48.02;97894.34;5176266;28;20250;-62
2021/05/19 15:31:16;;;;;;;2.10;1.90;;;16.00;94.70;;;16.63;48.44;97897.66;5179508;28;20302;-62
2021/05/19 15:33:49;;;;;;;2.30;2.10;;;15.90;95.60;;;16.67;49.29;97902.09;5165531;28;20301;-63
2021/05/19 15:36:21;;;;;;;3.05;2.60;;;15.90;96.70;;;16.68;49.78;97910.69;5170453;28;20201;-62
2021/05/19 15:38:54;;;;;;;2.85;1.70;;;15.70;96.80;;;16.32;51.37;97915.50;5181237;28;20340;-62
2021/05/19 15:41:26;;;;;;;2.20;2.10;;;15.50;97.70;;;15.99;52.58;97918.59;5192981;28;20306;-62
2021/05/19 15:44:01;;;;;;;3.55;2.10;;;15.20;98.60;;;15.91;53.17;97914.84;5179894;28;20717;-62
2021/05/19 15:46:34;;;;;;;2.55;2.10;;;15.10;99.10;;;15.85;54.21;97927.50;5183024;28;20577;-62
2021/05/19 15:49:07;;;;;;;3.45;2.35;;;15.00;99.90;;;16.16;53.99;97925.25;5183552;28;20218;-61
2021/05/19 15:51:40;;;;;;;2.67;2.33;;;15.20;99.90;;;15.83;55.31;97929.19;5194360;28;20290;-61
2021/05/19 15:54:12;;;;;;;2.85;2.17;;;15.10;99.90;;;15.87;55.59;97942.22;5184391;28;20198;-62
2021/05/19 15:56:45;;;;;;;4.82;3.42;;;15.10;99.90;;;15.76;55.97;97944.38;5199347;28;20294;-59
2021/05/19 15:59:17;;;;;;;2.58;2.38;;;14.90;99.90;;;15.56;56.37;97940.13;5183997;28;20226;-61
2021/05/19 16:01:51;;;;;;;5.82;3.95;;;14.80;99.90;;;15.44;56.68;97944.81;5185281;28;20615;-61
2021/05/19 16:04:25;;;;;;;8.80;6.55;;;14.70;99.90;;;15.48;56.63;97951.84;5201481;28;20297;-59
2021/05/19 16:06:59;;;;;;;93.40;85.47;;;14.60;99.90;;;15.50;57.19;97943.34;5179760;28;20294;-61
2021/05/19 16:09:32;;;;;;;22.80;20.42;;;14.60;99.90;;;15.55;56.40;97953.84;5184533;28;20674;-61
2021/05/19 16:12:05;;;;;;;327.25;291.83;;;14.70;99.90;;;15.45;56.86;97956.88;5183901;28;20218;-61
2021/05/19 16:14:38;;;;;;;307.77;274.92;;;14.70;99.90;;;15.42;56.57;97956.75;5180962;28;20209;-61
2021/05/19 16:17:11;;;;;;;195.05;181.25;;;14.70;99.90;;;15.43;56.32;97958.53;5184924;28;20289;-60
2021/05/19 16:19:44;;;;;;;50.58;46.47;;;14.70;99.90;;;15.50;56.12;97966.53;5171389;28;20201;-60
2021/05/19 16:22:17;;;;;;;8.75;8.05;;;14.80;99.90;;;15.44;57.13;97958.56;5176734;28;20701;-61
2021/05/19 16:24:49;;;;;;;2.67;2.47;;;14.70;99.90;;;15.54;56.09;97958.13;5165542;28;20282;-61
2021/05/19 16:27:23;;;;;;;2.90;2.70;;;14.70;99.90;;;15.55;55.80;97959.00;5187501;28;20264;-62
2021/05/19 16:30:56;;;;;;;4.95;4.30;;;14.80;99.90;;;15.72;54.15;97950.25;5198445;28;20348;-61
2021/05/19 16:34:25;;;;;;;4.78;4.47;;;15.00;99.90;;;15.84;54.73;97957.56;5196041;28;20234;-62
2021/05/19 16:37:01;;;;;;;35.10;31.73;;;15.10;99.90;;;15.85;54.27;97958.44;5202066;28;20632;-62
2021/05/19 16:39:35;;;;;;;16.33;14.20;;;15.10;99.90;;;15.81;54.05;97965.19;5194866;28;20276;-60
2021/05/19 16:42:11;;;;;;;2.67;2.47;;;15.00;99.90;;;15.88;54.04;97966.28;5199068;28;20248;-61
2021/05/19 16:44:44;;;;;;;2.30;1.60;;;15.00;99.90;;;15.87;52.41;97972.28;5195974;28;20281;-60
2021/05/19 16:47:17;;;;;;;2.45;1.60;;;15.00;99.00;;;15.62;52.29;97971.28;5202575;28;20200;-61
2021/05/19 16:49:50;;;;;;;1.95;1.75;;;14.80;98.90;;;15.48;52.07;97975.94;5199728;28;20215;-61
2021/05/19 16:52:23;;;;;;;2.13;1.65;;;14.60;98.80;;;15.48;51.94;97977.59;5199129;28;20747;-61
2021/05/19 16:54:56;;;;;;;1.77;1.67;;;14.60;98.60;;;15.28;52.66;97980.28;5173822;28;20205;-60
2021/05/19 16:57:28;;;;;;;2.15;1.95;;;14.40;99.30;;;15.14;52.94;97983.09;5181970;28;20201;-60
2021/05/19 17:00:01;;;;;;;2.08;1.77;;;14.30;99.10;;;14.91;53.74;97983.03;5203000;28;20295;-61
2021/05/19 17:05:24;;;;;;;3.38;1.98;;;14.00;99.60;;;14.94;54.11;97984.88;5183811;28;20286;-60
2021/05/19 17:07:58;;;;;;;1.80;1.70;;;14.00;99.90;;;14.75;55.15;97988.34;5200232;28;20237;-61
2021/05/19 17:10:32;;;;;;;2.13;1.92;;;13.90;99.90;;;14.69;55.50;97993.22;5193473;28;20224;-61
2021/05/19 17:13:05;;;;;;;1.90;1.80;;;13.80;99.90;;;14.65;55.98;97992.22;5198853;28;20312;-60
2021/05/19 17:15:37;;;;;;;2.20;2.00;;;13.80;99.90;;;14.62;55.49;98010.06;5173821;28;20286;-61
2021/05/19 17:18:11;;;;;;;2.15;2.00;;;13.80;99.90;;;14.57;56.18;98006.44;5181540;28;20203;-62
2021/05/19 17:20:43;;;;;;;1.83;1.73;;;13.70;99.90;;;14.45;56.16;98001.63;5188012;28;20282;-60
2021/05/19 17:23:17;;;;;;;1.77;1.67;;;13.70;99.90;;;14.83;53.84;98005.88;5189418;28;20219;-61
2021/05/19 17:25:49;;;;;;;1.88;1.70;;;14.00;99.80;;;14.56;55.28;98015.81;5185861;28;20297;-61
2021/05/19 17:28:22;;;;;;;2.08;1.98;;;13.90;99.90;;;14.60;55.01;98014.28;5185395;28;20198;-60
2021/05/19 17:30:54;;;;;;;1.90;1.80;;;13.90;99.90;;;14.60;56.22;98014.28;5190192;28;20585;-61
2021/05/19 17:33:27;;;;;;;1.83;1.65;;;13.80;99.90;;;14.63;55.22;98015.31;5190883;28;20263;-61
2021/05/19 17:35:59;;;;;;;2.08;1.77;;;13.80;99.90;;;14.59;54.63;98021.13;5204685;28;20204;-60
2021/05/19 17:38:33;;;;;;;1.75;1.65;;;13.80;99.90;;;14.54;55.63;98024.31;5178024;28;20464;-60
2021/05/19 17:41:05;;;;;;;1.42;1.33;;;13.80;99.90;;;14.57;54.55;98030.47;5175580;28;20190;-60
2021/05/19 17:43:38;;;;;;;1.50;1.48;;;13.80;99.90;;;14.57;54.94;98032.16;5184751;28;20554;-60
2021/05/19 17:46:10;;;;;;;1.50;1.40;;;13.70;99.90;;;14.49;55.38;98036.06;5191954;28;20207;-60
2021/05/19 17:48:43;;;;;;;1.73;1.65;;;13.70;99.90;;;14.60;53.87;98042.59;5188411;28;20557;-59
2021/05/19 17:51:16;;;;;;;1.67;1.42;;;13.70;99.90;;;14.72;53.19;98043.13;5180132;28;20600;-60
2021/05/19 17:53:49;;;;;;;1.50;1.40;;;13.70;99.60;;;14.76;52.98;98045.00;5183414;28;20312;-60
2021/05/19 17:56:22;;;;;;;1.65;1.60;;;13.80;99.40;;;14.48;55.29;98042.00;5190433;28;20201;-60
2021/05/19 17:58:54;;;;;;;1.80;1.70;;;13.70;99.90;;;14.41;55.02;98040.84;5187308;28;20201;-61
2021/05/19 18:01:29;;;;;;;1.50;1.50;;;13.50;99.90;;;14.52;53.01;98033.66;5186061;28;20291;-60
2021/05/19 18:04:02;;;;;;;1.88;1.77;;;13.50;99.70;;;14.31;54.83;98038.69;5180643;28;20385;-61
2021/05/19 18:06:39;;;;;;;1.42;1.30;;;13.40;99.90;;;14.14;54.42;98037.91;5178643;28;20200;-61
2021/05/19 18:09:12;;;;;;;1.88;1.77;;;13.30;99.90;;;14.04;55.68;98031.47;5165568;28;20205;-61
2021/05/19 18:11:47;;;;;;;1.65;1.63;;;13.20;99.90;;;13.92;55.55;98028.31;5176401;28;20201;-60
2021/05/19 18:14:25;;;;;;;1.85;1.75;;;13.00;99.90;;;13.79;55.80;98037.13;5175078;28;20293;-61
2021/05/19 18:16:59;;;;;;;1.60;1.60;;;12.90;99.90;;;13.68;56.68;98022.94;5188399;28;20195;-61
2021/05/19 18:19:31;;;;;;;1.58;1.48;;;12.80;99.90;;;13.59;57.56;98025.03;5176526;28;20297;-59
2021/05/19 18:22:06;;;;;;;1.88;1.75;;;12.70;99.90;;;13.48;58.55;98032.25;5194856;28;20209;-60
2021/05/19 18:24:39;;;;;;;1.98;1.67;;;12.60;99.90;;;13.43;58.40;98037.16;5189905;28;20352;-60
2021/05/19 18:27:14;;;;;;;2.53;1.73;;;12.60;99.90;;;13.37;59.25;98030.84;5184637;28;20199;-60
2021/05/19 18:29:49;;;;;;;1.90;1.88;;;12.50;99.90;;;13.25;59.86;98031.09;5182926;28;20303;-60
2021/05/19 18:32:26;;;;;;;1.90;1.73;;;12.40;99.90;;;13.16;59.27;98033.19;5177865;28;20325;-60
2021/05/19 18:35:10;;;;;;;2.13;2.03;;;12.30;99.90;;;13.03;59.86;98030.00;5172707;28;20203;-61
2021/05/19 18:37:43;;;;;;;2.50;2.30;;;12.20;99.90;;;12.98;59.17;98025.44;5175715;28;20195;-60
2021/05/19 18:40:17;;;;;;;2.55;2.45;;;12.10;99.90;;;12.90;60.32;98031.88;5164595;28;20286;-61
2021/05/19 18:42:50;;;;;;;2.50;2.00;;;12.10;99.90;;;12.81;59.70;98034.84;5165428;28;20222;-60
2021/05/19 18:45:25;;;;;;;2.05;1.95;;;12.00;99.90;;;12.75;60.84;98043.13;5180122;28;20234;-60
2021/05/19 18:47:59;;;;;;;2.25;2.15;;;11.90;99.90;;;12.73;61.41;98043.84;5175052;28;20659;-60
2021/05/19 18:50:32;;;;;;;2.28;2.15;;;11.90;99.90;;;12.67;61.85;98046.09;5184156;28;20214;-60
2021/05/19 18:53:05;;;;;;;2.33;2.22;;;11.80;99.90;;;12.60;62.15;98053.47;5182474;28;20421;-60
2021/05/19 18:55:38;;;;;;;2.35;2.15;;;11.80;99.90;;;12.52;62.68;98048.75;5176577;28;20217;-60
2021/05/19 18:58:11;;;;;;;2.20;2.10;;;11.70;99.90;;;12.47;63.60;98055.31;5181304;28;20686;-58
2021/05/19 19:00:44;;;;;;;3.00;2.60;;;11.60;99.90;;;12.38;64.13;98055.72;5181456;28;20194;-60
2021/05/19 19:03:16;;;;;;;3.55;3.25;;;11.50;99.90;;;12.35;64.81;98060.66;5180057;28;20219;-60
2021/05/19 19:05:49;;;;;;;2.78;2.67;;;11.50;99.90;;;12.30;65.19;98065.53;5178222;28;20224;-60
2021/05/19 19:08:22;;;;;;;3.58;3.38;;;11.30;99.90;;;12.21;65.34;98071.88;5178699;28;20202;-59
2021/05/19 19:10:55;;;;;;;3.20;3.10;;;11.20;99.90;;;12.12;65.98;98078.25;5179263;28;20309;-60
2021/05/19 19:13:28;;;;;;;3.40;3.17;;;11.20;99.90;;;11.99;67.29;98073.28;5178465;28;20233;-60
2021/05/19 19:16:00;;;;;;;3.33;2.67;;;11.00;99.90;;;11.95;68.31;98081.56;5179979;28;20252;-61
2021/05/19 19:18:34;;;;;;;2.60;2.40;;;11.00;99.90;;;11.86;69.60;98079.38;5178543;28;20395;-61
2021/05/19 19:21:07;;;;;;;2.80;2.10;;;10.90;99.90;;;11.83;69.46;98084.31;5181090;28;20225;-61
2021/05/19 19:23:39;;;;;;;2.60;2.28;;;10.90;99.90;;;11.79;69.99;98096.84;5173213;28;20246;-60
2021/05/19 19:26:13;;;;;;;2.80;2.60;;;10.80;99.90;;;11.70;70.20;98100.69;5176386;28;20233;-60
2021/05/19 19:28:46;;;;;;;2.45;2.35;;;10.70;99.90;;;11.59;71.44;98104.31;5165427;28;20907;-60
2021/05/19 19:31:19;;;;;;;2.67;2.47;;;10.60;99.90;;;11.56;71.63;98101.56;5180790;28;20313;-60
2021/05/19 19:33:51;;;;;;;2.50;2.40;;;10.60;99.90;;;11.45;72.14;98121.44;5174759;28;20219;-61
2021/05/19 19:36:24;;;;;;;2.40;2.20;;;10.50;99.90;;;11.26;71.87;98110.91;5174358;28;20228;-60
2021/05/19 19:38:56;;;;;;;2.00;1.90;;;10.40;99.90;;;11.31;72.18;98122.31;5177791;28;20474;-60
2021/05/19 19:41:30;;;;;;;2.60;2.50;;;10.40;99.90;;;11.24;72.89;98123.59;5170459;28;20207;-60
2021/05/19 19:44:04;;;;;;;2.40;2.20;;;10.30;99.90;;;11.19;72.76;98129.28;5177484;28;20726;-61
2021/05/19 19:46:37;;;;;;;3.78;3.47;;;10.20;99.90;;;11.17;72.66;98128.28;5176755;28;20658;-61
2021/05/19 19:49:12;;;;;;;6.07;5.68;;;10.10;99.90;;;11.07;73.14;98129.41;5166205;28;20207;-61
2021/05/19 19:51:45;;;;;;;4.80;4.40;;;10.10;99.90;;;11.02;73.80;98129.16;5172060;28;20218;-61
2021/05/19 19:54:18;;;;;;;4.13;3.92;;;10.00;99.90;;;10.95;73.78;98137.22;5172414;28;20612;-61
2021/05/19 19:56:51;;;;;;;4.25;3.80;;;9.90;99.90;;;10.89;74.43;98141.09;5177817;28;20199;-61
2021/05/19 19:59:28;;;;;;;4.63;4.22;;;9.90;99.90;;;10.78;74.00;98132.78;5179315;28;20214;-61
2021/05/19 20:02:09;;;;;;;4.70;4.13;;;9.80;99.90;;;10.66;74.28;98143.16;5178123;28;20647;-61
2021/05/19 20:04:42;;;;;;;3.40;3.20;;;9.70;99.90;;;10.60;75.25;98137.66;5177196;28;20621;-61
2021/05/19 20:07:14;;;;;;;3.92;3.65;;;9.70;99.90;;;10.56;76.22;98140.84;5181389;28;20568;-61
2021/05/19 20:09:47;;;;;;;5.90;5.30;;;9.70;99.90;;;10.52;75.08;98139.75;5191362;28;20314;-60
2021/05/19 20:12:22;;;;;;;6.00;5.60;;;9.60;99.90;;;10.49;75.67;98143.78;5182255;28;20222;-60
2021/05/19 20:14:55;;;;;;;5.05;4.75;;;9.60;99.90;;;10.45;76.17;98141.84;5183955;28;20197;-61
2021/05/19 20:17:28;;;;;;;5.03;4.65;;;9.50;99.90;;;10.36;76.79;98147.28;5184590;28;20593;-61
2021/05/19 20:20:01;;;;;;;4.75;4.43;;;9.50;99.90;;;10.29;76.80;98145.97;5177796;28;20194;-61
2021/05/19 20:22:34;;;;;;;4.30;4.00;;;9.40;99.90;;;10.27;76.41;98156.88;5199916;28;20261;-61
2021/05/19 20:25:08;;;;;;;4.20;3.90;;;9.30;99.90;;;10.23;76.69;98155.78;5180735;28;20286;-61
2021/05/19 20:27:42;;;;;;;4.05;3.75;;;9.30;99.90;;;10.22;76.58;98161.69;5183578;28;20640;-61
2021/05/19 20:30:20;;;;;;;3.88;3.50;;;9.30;99.90;;;10.21;77.38;98162.47;5177825;28;20229;-61
2021/05/19 20:32:52;;;;;;;4.00;3.70;;;9.20;99.90;;;10.06;78.10;98166.59;5168616;28;20258;-61
2021/05/19 20:35:25;;;;;;;4.20;3.40;;;9.10;99.90;;;10.07;78.48;98168.38;5178513;28;20641;-60
2021/05/19 20:37:58;;;;;;;3.40;3.20;;;9.10;99.90;;;10.07;78.49;98173.47;5185484;28;20285;-61
2021/05/19 20:40:31;;;;;;;3.28;3.08;;;9.10;99.90;;;9.99;78.25;98169.56;5194380;28;20289;-61
2021/05/19 20:43:04;;;;;;;3.47;3.28;;;9.10;99.90;;;9.92;79.52;98179.34;5199896;22;20321;-62
2021/05/19 20:45:38;;;;;;;3.40;3.20;;;9.10;99.90;;;9.82;80.16;98177.00;5194445;28;20655;-64
2021/05/19 20:48:15;;;;;;;3.17;2.97;;;9.00;99.90;;;9.81;78.99;98179.44;5186130;28;20210;-64
2021/05/19 20:50:48;;;;;;;2.97;2.78;;;9.00;99.90;;;9.80;78.76;98180.25;5184493;28;20240;-64
2021/05/19 20:53:21;;;;;;;2.97;2.80;;;8.90;99.90;;;9.75;79.51;98179.06;5182539;28;20325;-64
2021/05/19 20:55:53;;;;;;;2.83;2.58;;;8.90;99.90;;;9.74;78.18;98187.50;5190455;28;20293;-64
2021/05/19 20:58:27;;;;;;;2.90;2.70;;;8.80;99.90;;;9.67;78.72;98187.13;5203982;28;20285;-65
2021/05/19 21:00:59;;;;;;;3.08;2.88;;;8.70;99.90;;;9.60;79.30;98194.25;5192496;28;20294;-64
2021/05/19 21:03:32;;;;;;;3.20;3.00;;;8.70;99.90;;;9.61;78.61;98202.00;5205651;28;20296;-64
2021/05/19 21:06:05;;;;;;;3.75;3.40;;;8.60;99.90;;;9.50;78.77;98190.22;5192233;28;20745;-63
2021/05/19 21:08:37;;;;;;;4.47;4.07;;;8.60;99.90;;;9.52;78.93;98191.19;5187357;28;20195;-64
2021/05/19 21:11:10;;;;;;;4.05;3.50;;;8.50;99.90;;;9.46;79.98;98189.13;5186817;28;20221;-64
2021/05/19 21:13:43;;;;;;;7.72;6.93;;;8.50;99.90;;;9.36;80.04;98204.59;5186956;28;20305;-65
2021/05/19 21:16:17;;;;;;;4.70;4.27;;;8.40;99.90;;;9.27;80.12;98193.78;5187050;28;20222;-66
2021/05/19 21:18:51;;;;;;;4.25;3.85;;;8.40;99.90;;;9.29;79.81;98202.41;5200647;28;20626;-65
2021/05/19 21:21:24;;;;;;;7.40;6.70;;;8.30;99.90;;;9.18;80.13;98204.22;5185678;28;20671;-65
2021/05/19 21:23:56;;;;;;;6.35;5.75;;;8.30;99.90;;;9.14;80.74;98197.16;5190892;28;20595;-62
2021/05/19 21:26:29;;;;;;;3.07;2.87;;;8.20;99.90;;;8.94;79.15;98200.03;5190579;28;20289;-66
2021/05/19 21:29:03;;;;;;;4.50;3.20;;;8.00;99.90;;;8.82;79.69;98202.63;5188603;28;20289;-65
2021/05/19 21:31:38;;;;;;;2.93;2.70;;;7.90;99.90;;;8.69;80.06;98212.72;5193336;28;20225;-64
2021/05/19 21:34:11;;;;;;;3.10;2.90;;;7.90;99.90;;;8.63;80.24;98202.97;5186865;28;20409;-65
2021/05/19 21:36:44;;;;;;;3.40;3.10;;;7.90;99.90;;;8.80;81.42;98202.50;5191537;28;20204;-64
2021/05/19 21:39:17;;;;;;;3.30;2.73;;;8.00;99.90;;;8.91;81.80;98210.00;5193840;28;20298;-64
2021/05/19 21:41:49;;;;;;;3.80;3.40;;;8.20;99.90;;;8.99;81.53;98211.44;5187788;28;20195;-62
2021/05/19 21:44:23;;;;;;;6.03;3.70;;;8.30;99.90;;;9.10;81.25;98219.78;5186380;28;20253;-64
2021/05/19 21:46:55;;;;;;;5.47;4.97;;;8.30;99.90;;;9.17;81.51;98222.00;5186403;28;20222;-65
2021/05/19 21:49:28;;;;;;;5.75;5.25;;;8.40;99.90;;;9.21;80.80;98227.41;5187603;28;20290;-62
2021/05/19 21:52:00;;;;;;;5.00;4.50;;;8.40;99.90;;;9.14;80.35;98221.78;5188477;28;20681;-65
2021/05/19 21:54:35;;;;;;;5.17;3.43;;;8.40;99.90;;;9.09;80.45;98225.69;5191531;28;20648;-65
2021/05/19 21:57:07;;;;;;;3.67;2.83;;;8.30;99.90;;;9.01;79.78;98220.94;5195657;28;20234;-63
2021/05/19 21:59:41;;;;;;;3.37;3.00;;;8.20;99.90;;;8.87;80.16;98226.75;5192232;28;20277;-64
2021/05/19 22:02:14;;;;;;;3.00;2.80;;;8.10;99.90;;;8.87;80.77;98221.66;5191946;28;20195;-63
2021/05/19 22:04:46;;;;;;;2.93;2.73;;;8.10;99.90;;;8.94;81.38;98226.38;5192669;28;20281;-63
2021/05/19 22:07:19;;;;;;;3.00;2.73;;;8.20;99.90;;;9.01;81.54;98218.41;5196866;28;20567;-66
2021/05/19 22:09:51;;;;;;;2.83;2.72;;;8.30;99.90;;;9.10;81.27;98214.69;5182623;28;20249;-66
2021/05/19 22:12:24;;;;;;;3.10;2.80;;;8.30;99.90;;;9.14;81.32;98225.22;5189117;28;20740;-64
2021/05/19 22:14:58;;;;;;;2.80;2.60;;;8.40;99.90;;;9.17;80.76;98229.63;5183389;28;20697;-66
2021/05/19 22:17:31;;;;;;;2.73;2.53;;;8.40;99.90;;;9.19;80.52;98228.97;5190543;28;20206;-65
2021/05/19 22:20:19;;;;;;;2.85;2.63;;;8.40;99.90;;;9.12;80.69;98228.44;5184891;28;20195;-66
2021/05/19 22:23:06;;;;;;;2.97;2.60;;;8.40;99.90;;;9.19;81.48;98230.63;5186817;28;20313;-65
2021/05/19 22:26:12;;;;;;;3.00;2.80;;;8.50;99.90;;;9.24;81.70;98229.25;5181903;28;20194;-64
2021/05/19 22:28:32;;;;;;;2.47;2.37;;;8.50;99.90;;;9.27;81.84;98224.41;5185169;28;20213;-64
2021/05/19 22:31:06;;;;;;;2.60;2.50;;;8.60;99.90;;;9.30;81.70;98223.69;5191206;28;20310;-66
2021/05/19 22:33:39;;;;;;;2.73;2.63;;;8.60;99.90;;;9.41;81.57;98231.31;5193869;28;20241;-64
2021/05/19 22:36:17;;;;;;;2.70;2.50;;;8.70;99.90;;;9.46;80.57;98227.38;5185804;28;20290;-64
2021/05/19 22:38:52;;;;;;;2.97;2.77;;;8.70;99.90;;;9.44;80.40;98233.16;5191232;28;20194;-63
2021/05/19 22:41:26;;;;;;;2.40;2.20;;;8.70;99.90;;;9.48;80.53;98236.03;5185947;28;20293;-66
2021/05/19 22:43:59;;;;;;;2.30;2.20;;;8.70;99.90;;;9.51;80.45;98244.69;5195245;28;20727;-66
2021/05/19 22:46:33;;;;;;;2.63;2.43;;;8.70;99.90;;;9.52;80.68;98237.13;5187214;28;20301;-66
2021/05/19 22:49:08;;;;;;;2.83;2.63;;;8.70;99.90;;;9.40;82.73;98242.28;5195232;28;20297;-66
2021/05/19 22:51:40;;;;;;;2.70;2.50;;;8.70;99.90;;;9.23;82.36;98240.25;5185760;28;20308;-66
2021/05/19 22:54:13;;;;;;;3.40;3.10;;;8.60;99.90;;;9.18;81.70;98249.25;5186028;28;20218;-66
2021/05/19 22:56:46;;;;;;;2.70;2.60;;;8.50;99.90;;;9.03;82.58;98249.97;5190651;28;20281;-66
2021/05/19 22:59:18;;;;;;;3.10;2.40;;;8.40;99.90;;;8.88;83.31;98243.81;5200462;28;20662;-66
2021/05/19 23:01:52;;;;;;;2.87;2.67;;;8.30;99.90;;;8.79;83.79;98250.81;5196508;28;20290;-65
2021/05/19 23:04:24;;;;;;;2.70;2.50;;;8.20;99.90;;;8.82;84.98;98258.69;5192908;28;20213;-66
2021/05/19 23:06:57;;;;;;;4.30;3.90;;;8.20;99.90;;;8.85;86.70;98253.81;5187370;28;20627;-66
2021/05/19 23:09:29;;;;;;;4.30;4.00;;;8.30;99.90;;;8.82;87.77;98253.59;5189024;28;20194;-67
2021/05/19 23:12:02;;;;;;;5.53;4.93;;;8.40;99.90;;;8.88;88.83;98253.13;5185992;28;20649;-66